sensor_id;sensor_type;location;lat;lon;timestamp;pressure;altitude;pressure_sealevel;temperature;humidity
46944;BME280;32678;43.852;25.952;2023-06-22T00:00:30;101374.84;;;26.32;59.90
46944;BME280;32678;43.852;25.952;2023-06-22T00:05:28;101366.72;;;26.62;58.77
46944;BME280;32678;43.852;25.952;2023-06-22T00:10:25;101369.34;;;27.11;57.27
46944;BME280;32678;43.852;25.952;2023-06-22T00:15:22;101361.97;;;27.04;57.45
46944;BME280;32678;43.852;25.952;2023-06-22T00:20:19;101360.09;;;27.24;59.05
46944;BME280;32678;43.852;25.952;2023-06-22T00:25:16;101348.03;;;27.37;58.32
46944;BME280;32678;43.852;25.952;2023-06-22T00:30:15;101351.59;;;27.38;57.13
46944;BME280;32678;43.852;25.952;2023-06-22T00:35:13;101345.75;;;27.42;56.68
46944;BME280;32678;43.852;25.952;2023-06-22T00:40:11;101346.66;;;27.24;56.98
46944;BME280;32678;43.852;25.952;2023-06-22T00:45:08;101359.97;;;27.25;58.59
46944;BME280;32678;43.852;25.952;2023-06-22T00:50:05;101358.84;;;27.18;58.39
46944;BME280;32678;43.852;25.952;2023-06-22T00:55:03;101358.47;;;26.54;62.06
46944;BME280;32678;43.852;25.952;2023-06-22T01:00:01;101355.91;;;26.33;63.99
46944;BME280;32678;43.852;25.952;2023-06-22T01:05:02;101356.75;;;26.03;65.55
46944;BME280;32678;43.852;25.952;2023-06-22T01:10:00;101348.25;;;25.68;65.96
46944;BME280;32678;43.852;25.952;2023-06-22T01:15:02;101346.72;;;26.05;64.31
46944;BME280;32678;43.852;25.952;2023-06-22T01:20:04;101350.44;;;26.14;62.89
46944;BME280;32678;43.852;25.952;2023-06-22T01:25:07;101352.28;;;26.13;63.03
46944;BME280;32678;43.852;25.952;2023-06-22T01:30:07;101354.97;;;26.13;62.90
46944;BME280;32678;43.852;25.952;2023-06-22T01:35:07;101355.13;;;25.91;63.50
46944;BME280;32678;43.852;25.952;2023-06-22T01:40:04;101362.38;;;26.00;63.93
46944;BME280;32678;43.852;25.952;2023-06-22T01:45:02;101368.84;;;26.18;62.96
46944;BME280;32678;43.852;25.952;2023-06-22T01:50:00;101378.94;;;26.26;62.83
46944;BME280;32678;43.852;25.952;2023-06-22T01:54:56;101381.09;;;26.32;62.62
46944;BME280;32678;43.852;25.952;2023-06-22T01:59:57;101383.09;;;26.49;61.50
46944;BME280;32678;43.852;25.952;2023-06-22T02:04:57;101384.81;;;26.60;61.05
46944;BME280;32678;43.852;25.952;2023-06-22T02:09:56;101393.72;;;26.51;60.92
46944;BME280;32678;43.852;25.952;2023-06-22T02:14:54;101388.94;;;26.14;62.06
46944;BME280;32678;43.852;25.952;2023-06-22T02:19:50;101401.16;;;26.28;61.77
46944;BME280;32678;43.852;25.952;2023-06-22T02:24:47;101414.47;;;26.39;61.67
46944;BME280;32678;43.852;25.952;2023-06-22T02:29:45;101405.06;;;26.64;60.40
46944;BME280;32678;43.852;25.952;2023-06-22T02:34:41;101410.16;;;26.48;60.49
46944;BME280;32678;43.852;25.952;2023-06-22T02:39:38;101419.94;;;26.58;60.36
46944;BME280;32678;43.852;25.952;2023-06-22T02:44:37;101429.44;;;26.62;60.38
46944;BME280;32678;43.852;25.952;2023-06-22T02:49:34;101431.72;;;26.67;60.21
46944;BME280;32678;43.852;25.952;2023-06-22T02:54:31;101432.34;;;26.50;60.41
46944;BME280;32678;43.852;25.952;2023-06-22T02:59:29;101444.19;;;26.28;62.01
46944;BME280;32678;43.852;25.952;2023-06-22T03:04:36;101451.44;;;26.16;62.40
46944;BME280;32678;43.852;25.952;2023-06-22T03:09:33;101442.78;;;25.82;63.50
46944;BME280;32678;43.852;25.952;2023-06-22T03:14:30;101445.06;;;25.66;64.21
46944;BME280;32678;43.852;25.952;2023-06-22T03:19:27;101438.66;;;25.78;63.60
46944;BME280;32678;43.852;25.952;2023-06-22T03:24:26;101441.38;;;25.88;62.58
46944;BME280;32678;43.852;25.952;2023-06-22T03:29:25;101436.94;;;25.98;61.80
46944;BME280;32678;43.852;25.952;2023-06-22T03:34:27;101438.47;;;26.01;61.61
46944;BME280;32678;43.852;25.952;2023-06-22T03:39:24;101424.81;;;25.83;61.88
46944;BME280;32678;43.852;25.952;2023-06-22T03:44:21;101423.19;;;25.71;61.76
46944;BME280;32678;43.852;25.952;2023-06-22T03:49:21;101420.47;;;25.29;63.23
46944;BME280;32678;43.852;25.952;2023-06-22T03:54:20;101435.13;;;25.25;63.49
46944;BME280;32678;43.852;25.952;2023-06-22T03:59:16;101425.47;;;25.23;63.76
46944;BME280;32678;43.852;25.952;2023-06-22T04:04:14;101436.25;;;25.43;63.20
46944;BME280;32678;43.852;25.952;2023-06-22T04:09:11;101445.03;;;25.45;62.76
46944;BME280;32678;43.852;25.952;2023-06-22T04:14:08;101428.75;;;25.79;61.75
46944;BME280;32678;43.852;25.952;2023-06-22T04:19:04;101437.59;;;26.21;60.51
46944;BME280;32678;43.852;25.952;2023-06-22T04:24:02;101430.50;;;26.41;59.71
46944;BME280;32678;43.852;25.952;2023-06-22T04:28:59;101443.16;;;26.59;57.28
46944;BME280;32678;43.852;25.952;2023-06-22T04:33:55;101454.78;;;26.69;56.62
46944;BME280;32678;43.852;25.952;2023-06-22T04:38:52;101462.50;;;26.44;61.64
46944;BME280;32678;43.852;25.952;2023-06-22T04:43:50;101468.66;;;25.83;62.65
46944;BME280;32678;43.852;25.952;2023-06-22T04:48:53;101476.31;;;24.92;66.76
46944;BME280;32678;43.852;25.952;2023-06-22T04:53:59;101466.13;;;24.53;68.27
46944;BME280;32678;43.852;25.952;2023-06-22T04:59:07;101475.25;;;24.73;67.32
46944;BME280;32678;43.852;25.952;2023-06-22T05:04:18;101465.22;;;25.29;65.88
46944;BME280;32678;43.852;25.952;2023-06-22T05:09:15;101469.97;;;25.68;64.93
46944;BME280;32678;43.852;25.952;2023-06-22T05:14:14;101468.25;;;25.67;63.46
46944;BME280;32678;43.852;25.952;2023-06-22T05:19:11;101462.91;;;26.18;62.03
46944;BME280;32678;43.852;25.952;2023-06-22T05:24:09;101465.31;;;26.42;58.86
46944;BME280;32678;43.852;25.952;2023-06-22T05:29:07;101480.59;;;26.42;57.76
46944;BME280;32678;43.852;25.952;2023-06-22T05:34:05;101471.63;;;26.62;57.23
46944;BME280;32678;43.852;25.952;2023-06-22T05:39:15;101480.31;;;26.85;55.86
46944;BME280;32678;43.852;25.952;2023-06-22T05:44:12;101477.97;;;26.91;54.58
46944;BME280;32678;43.852;25.952;2023-06-22T05:49:13;101483.06;;;27.04;54.35
46944;BME280;32678;43.852;25.952;2023-06-22T05:54:10;101472.19;;;27.25;52.37
46944;BME280;32678;43.852;25.952;2023-06-22T05:59:09;101471.22;;;27.35;51.70
46944;BME280;32678;43.852;25.952;2023-06-22T06:04:08;101464.44;;;27.50;49.74
46944;BME280;32678;43.852;25.952;2023-06-22T06:09:05;101473.38;;;27.51;49.79
46944;BME280;32678;43.852;25.952;2023-06-22T06:14:03;101477.16;;;27.20;49.44
46944;BME280;32678;43.852;25.952;2023-06-22T06:19:00;101473.91;;;27.16;55.18
46944;BME280;32678;43.852;25.952;2023-06-22T06:23:59;101469.81;;;27.22;52.44
46944;BME280;32678;43.852;25.952;2023-06-22T06:28:57;101475.56;;;27.07;57.15
46944;BME280;32678;43.852;25.952;2023-06-22T06:33:53;101474.72;;;26.97;58.39
46944;BME280;32678;43.852;25.952;2023-06-22T06:38:50;101463.13;;;26.57;59.47
46944;BME280;32678;43.852;25.952;2023-06-22T06:43:48;101476.72;;;26.35;61.24
46944;BME280;32678;43.852;25.952;2023-06-22T06:48:46;101483.34;;;26.91;55.01
46944;BME280;32678;43.852;25.952;2023-06-22T06:53:43;101473.00;;;26.87;55.25
46944;BME280;32678;43.852;25.952;2023-06-22T06:58:40;101478.16;;;27.38;54.28
46944;BME280;32678;43.852;25.952;2023-06-22T07:03:38;101473.03;;;27.15;55.78
46944;BME280;32678;43.852;25.952;2023-06-22T07:08:38;101469.22;;;27.28;56.01
46944;BME280;32678;43.852;25.952;2023-06-22T07:13:35;101483.53;;;27.38;54.85
46944;BME280;32678;43.852;25.952;2023-06-22T07:18:34;101487.81;;;27.69;53.31
46944;BME280;32678;43.852;25.952;2023-06-22T07:23:31;101480.94;;;28.04;51.50
46944;BME280;32678;43.852;25.952;2023-06-22T07:28:30;101476.31;;;27.38;52.55
46944;BME280;32678;43.852;25.952;2023-06-22T07:33:33;101476.75;;;27.72;48.19
46944;BME280;32678;43.852;25.952;2023-06-22T07:43:40;101470.66;;;28.36;45.45
46944;BME280;32678;43.852;25.952;2023-06-22T07:48:40;101479.38;;;28.57;44.31
46944;BME280;32678;43.852;25.952;2023-06-22T07:53:44;101481.72;;;28.70;44.36
46944;BME280;32678;43.852;25.952;2023-06-22T07:58:42;101474.84;;;28.85;43.93
46944;BME280;32678;43.852;25.952;2023-06-22T08:03:39;101493.00;;;29.10;44.28
46944;BME280;32678;43.852;25.952;2023-06-22T08:08:38;101480.75;;;29.16;44.86
46944;BME280;32678;43.852;25.952;2023-06-22T08:13:38;101478.97;;;28.79;45.80
46944;BME280;32678;43.852;25.952;2023-06-22T08:18:36;101480.09;;;28.87;45.64
46944;BME280;32678;43.852;25.952;2023-06-22T08:23:33;101480.09;;;28.50;46.45
46944;BME280;32678;43.852;25.952;2023-06-22T08:28:29;101473.47;;;28.44;45.77
46944;BME280;32678;43.852;25.952;2023-06-22T08:33:28;101481.75;;;28.97;47.02
46944;BME280;32678;43.852;25.952;2023-06-22T08:38:27;101477.91;;;29.17;44.71
46944;BME280;32678;43.852;25.952;2023-06-22T08:43:28;101479.06;;;28.60;45.14
46944;BME280;32678;43.852;25.952;2023-06-22T08:48:33;101485.53;;;28.40;45.50
46944;BME280;32678;43.852;25.952;2023-06-22T08:53:34;101480.94;;;28.87;44.59
46944;BME280;32678;43.852;25.952;2023-06-22T08:58:31;101478.66;;;29.10;44.38
46944;BME280;32678;43.852;25.952;2023-06-22T09:09:33;101472.31;;;29.72;43.69
46944;BME280;32678;43.852;25.952;2023-06-22T09:14:36;101469.31;;;29.93;42.78
46944;BME280;32678;43.852;25.952;2023-06-22T09:19:33;101463.63;;;30.04;42.29
46944;BME280;32678;43.852;25.952;2023-06-22T09:24:30;101465.91;;;30.17;41.92
46944;BME280;32678;43.852;25.952;2023-06-22T09:29:27;101461.38;;;30.25;41.06
46944;BME280;32678;43.852;25.952;2023-06-22T09:34:25;101456.53;;;30.37;40.31
46944;BME280;32678;43.852;25.952;2023-06-22T09:39:36;101449.03;;;30.48;40.06
46944;BME280;32678;43.852;25.952;2023-06-22T09:44:34;101456.47;;;30.54;40.68
46944;BME280;32678;43.852;25.952;2023-06-22T09:49:32;101452.97;;;30.62;39.90
46944;BME280;32678;43.852;25.952;2023-06-22T09:54:43;101444.88;;;30.70;40.37
46944;BME280;32678;43.852;25.952;2023-06-22T09:59:41;101446.06;;;30.76;38.92
46944;BME280;32678;43.852;25.952;2023-06-22T10:04:46;101448.78;;;30.84;38.98
46944;BME280;32678;43.852;25.952;2023-06-22T10:09:46;101436.53;;;30.22;38.88
46944;BME280;32678;43.852;25.952;2023-06-22T10:14:44;101452.28;;;30.60;39.08
46944;BME280;32678;43.852;25.952;2023-06-22T10:19:41;101447.03;;;30.59;38.83
46944;BME280;32678;43.852;25.952;2023-06-22T10:24:38;101449.88;;;30.49;38.31
46944;BME280;32678;43.852;25.952;2023-06-22T10:29:41;101440.81;;;30.40;39.37
46944;BME280;32678;43.852;25.952;2023-06-22T10:34:43;101428.50;;;30.38;39.08
46944;BME280;32678;43.852;25.952;2023-06-22T10:39:40;101429.25;;;30.22;39.71
46944;BME280;32678;43.852;25.952;2023-06-22T10:44:52;101419.94;;;30.17;39.89
46944;BME280;32678;43.852;25.952;2023-06-22T10:49:51;101415.28;;;30.35;39.78
46944;BME280;32678;43.852;25.952;2023-06-22T10:54:47;101409.91;;;30.43;39.32
46944;BME280;32678;43.852;25.952;2023-06-22T10:59:44;101412.03;;;30.31;39.25
46944;BME280;32678;43.852;25.952;2023-06-22T11:04:43;101416.31;;;30.42;39.21
46944;BME280;32678;43.852;25.952;2023-06-22T11:09:45;101418.03;;;30.93;38.84
46944;BME280;32678;43.852;25.952;2023-06-22T11:14:42;101413.84;;;31.15;38.53
46944;BME280;32678;43.852;25.952;2023-06-22T11:19:39;101418.34;;;30.90;37.59
46944;BME280;32678;43.852;25.952;2023-06-22T11:24:36;101409.75;;;30.44;38.38
46944;BME280;32678;43.852;25.952;2023-06-22T11:29:35;101412.94;;;30.82;37.87
46944;BME280;32678;43.852;25.952;2023-06-22T11:34:37;101391.78;;;30.77;37.69
46944;BME280;32678;43.852;25.952;2023-06-22T11:39:34;101397.91;;;31.04;37.53
46944;BME280;32678;43.852;25.952;2023-06-22T11:44:45;101390.16;;;31.41;36.43
46944;BME280;32678;43.852;25.952;2023-06-22T11:49:41;101393.53;;;31.43;36.97
46944;BME280;32678;43.852;25.952;2023-06-22T11:54:40;101392.50;;;31.68;37.94
46944;BME280;32678;43.852;25.952;2023-06-22T11:59:37;101380.16;;;31.50;37.95
46944;BME280;32678;43.852;25.952;2023-06-22T12:04:37;101369.13;;;31.67;37.47
46944;BME280;32678;43.852;25.952;2023-06-22T12:09:34;101376.06;;;31.86;37.43
46944;BME280;32678;43.852;25.952;2023-06-22T12:14:31;101372.25;;;32.03;37.44
46944;BME280;32678;43.852;25.952;2023-06-22T12:19:28;101371.50;;;31.70;36.31
46944;BME280;32678;43.852;25.952;2023-06-22T12:24:26;101369.28;;;31.74;37.21
46944;BME280;32678;43.852;25.952;2023-06-22T12:29:22;101369.25;;;31.82;35.79
46944;BME280;32678;43.852;25.952;2023-06-22T12:34:24;101355.44;;;32.08;36.53
46944;BME280;32678;43.852;25.952;2023-06-22T12:39:23;101349.50;;;32.20;37.02
46944;BME280;32678;43.852;25.952;2023-06-22T12:44:21;101350.44;;;32.36;35.94
46944;BME280;32678;43.852;25.952;2023-06-22T12:49:18;101346.34;;;32.40;36.04
46944;BME280;32678;43.852;25.952;2023-06-22T12:54:17;101337.00;;;32.42;35.88
46944;BME280;32678;43.852;25.952;2023-06-22T12:59:14;101334.59;;;32.47;35.69
46944;BME280;32678;43.852;25.952;2023-06-22T13:04:14;101334.06;;;32.52;36.24
46944;BME280;32678;43.852;25.952;2023-06-22T13:09:11;101330.16;;;32.54;34.93
46944;BME280;32678;43.852;25.952;2023-06-22T13:14:11;101327.03;;;31.96;35.37
46944;BME280;32678;43.852;25.952;2023-06-22T13:19:07;101319.91;;;32.34;35.00
46944;BME280;32678;43.852;25.952;2023-06-22T13:24:08;101317.31;;;32.01;36.69
46944;BME280;32678;43.852;25.952;2023-06-22T13:29:05;101317.84;;;32.05;36.38
46944;BME280;32678;43.852;25.952;2023-06-22T13:34:04;101304.19;;;31.82;35.27
46944;BME280;32678;43.852;25.952;2023-06-22T13:39:05;101305.03;;;31.82;36.40
46944;BME280;32678;43.852;25.952;2023-06-22T13:44:03;101301.78;;;31.95;35.94
46944;BME280;32678;43.852;25.952;2023-06-22T13:49:00;101296.47;;;32.02;36.36
46944;BME280;32678;43.852;25.952;2023-06-22T13:53:57;101301.19;;;31.69;37.50
46944;BME280;32678;43.852;25.952;2023-06-22T13:58:54;101296.81;;;31.52;37.37
46944;BME280;32678;43.852;25.952;2023-06-22T14:03:51;101298.00;;;31.57;36.00
46944;BME280;32678;43.852;25.952;2023-06-22T14:08:48;101294.75;;;31.54;36.95
46944;BME280;32678;43.852;25.952;2023-06-22T14:13:45;101289.75;;;31.26;37.60
46944;BME280;32678;43.852;25.952;2023-06-22T14:18:42;101284.16;;;31.36;37.77
46944;BME280;32678;43.852;25.952;2023-06-22T14:23:43;101281.44;;;31.36;37.42
46944;BME280;32678;43.852;25.952;2023-06-22T14:28:45;101267.22;;;31.26;37.74
46944;BME280;32678;43.852;25.952;2023-06-22T14:33:45;101267.69;;;31.37;37.25
46944;BME280;32678;43.852;25.952;2023-06-22T14:38:43;101269.34;;;31.55;37.75
46944;BME280;32678;43.852;25.952;2023-06-22T14:43:43;101251.50;;;31.21;38.45
46944;BME280;32678;43.852;25.952;2023-06-22T14:48:40;101260.56;;;31.45;37.68
46944;BME280;32678;43.852;25.952;2023-06-22T14:53:41;101255.31;;;31.43;37.33
46944;BME280;32678;43.852;25.952;2023-06-22T14:58:39;101257.91;;;31.20;37.95
46944;BME280;32678;43.852;25.952;2023-06-22T15:03:37;101261.84;;;31.02;38.71
46944;BME280;32678;43.852;25.952;2023-06-22T15:08:34;101264.00;;;31.30;38.14
46944;BME280;32678;43.852;25.952;2023-06-22T15:13:31;101262.44;;;31.60;37.19
46944;BME280;32678;43.852;25.952;2023-06-22T15:18:40;101248.34;;;31.65;36.40
46944;BME280;32678;43.852;25.952;2023-06-22T15:24:08;101263.88;;;31.79;36.57
46944;BME280;32678;43.852;25.952;2023-06-22T15:29:06;101267.31;;;31.49;37.22
46944;BME280;32678;43.852;25.952;2023-06-22T15:34:03;101258.91;;;31.35;37.48
46944;BME280;32678;43.852;25.952;2023-06-22T15:39:00;101263.50;;;31.82;37.05
46944;BME280;32678;43.852;25.952;2023-06-22T15:43:57;101262.72;;;32.04;36.59
46944;BME280;32678;43.852;25.952;2023-06-22T15:48:54;101256.16;;;31.60;36.97
46944;BME280;32678;43.852;25.952;2023-06-22T15:53:52;101267.59;;;31.86;36.39
46944;BME280;32678;43.852;25.952;2023-06-22T15:58:54;101275.66;;;31.94;36.01
46944;BME280;32678;43.852;25.952;2023-06-22T16:03:52;101277.06;;;31.82;36.46
46944;BME280;32678;43.852;25.952;2023-06-22T16:08:49;101275.84;;;31.93;35.87
46944;BME280;32678;43.852;25.952;2023-06-22T16:13:47;101283.13;;;31.92;36.03
46944;BME280;32678;43.852;25.952;2023-06-22T16:18:43;101265.63;;;32.03;36.60
46944;BME280;32678;43.852;25.952;2023-06-22T16:23:41;101275.44;;;32.04;36.35
46944;BME280;32678;43.852;25.952;2023-06-22T16:28:38;101275.75;;;32.09;37.17
46944;BME280;32678;43.852;25.952;2023-06-22T16:33:35;101278.84;;;32.06;36.16
46944;BME280;32678;43.852;25.952;2023-06-22T16:38:32;101277.47;;;32.02;36.18
46944;BME280;32678;43.852;25.952;2023-06-22T16:43:29;101275.09;;;32.07;36.27
46944;BME280;32678;43.852;25.952;2023-06-22T16:48:26;101282.56;;;32.05;36.76
46944;BME280;32678;43.852;25.952;2023-06-22T16:53:23;101277.16;;;32.05;36.47
46944;BME280;32678;43.852;25.952;2023-06-22T16:58:21;101267.78;;;32.07;36.81
46944;BME280;32678;43.852;25.952;2023-06-22T17:03:20;101275.28;;;32.05;37.23
46944;BME280;32678;43.852;25.952;2023-06-22T17:08:18;101274.50;;;31.89;37.48
46944;BME280;32678;43.852;25.952;2023-06-22T17:13:17;101267.91;;;31.83;37.90
46944;BME280;32678;43.852;25.952;2023-06-22T17:18:28;101268.59;;;31.77;38.30
46944;BME280;32678;43.852;25.952;2023-06-22T17:23:26;101263.44;;;31.51;38.46
46944;BME280;32678;43.852;25.952;2023-06-22T17:28:24;101271.38;;;31.69;38.40
46944;BME280;32678;43.852;25.952;2023-06-22T17:33:24;101259.84;;;31.67;38.10
46944;BME280;32678;43.852;25.952;2023-06-22T17:38:26;101262.91;;;31.56;37.96
46944;BME280;32678;43.852;25.952;2023-06-22T17:43:24;101265.97;;;31.53;38.03
46944;BME280;32678;43.852;25.952;2023-06-22T17:48:20;101264.00;;;31.30;38.61
46944;BME280;32678;43.852;25.952;2023-06-22T17:53:19;101260.25;;;31.39;38.52
46944;BME280;32678;43.852;25.952;2023-06-22T17:58:16;101262.75;;;31.49;38.10
46944;BME280;32678;43.852;25.952;2023-06-22T18:03:17;101267.41;;;31.16;38.42
46944;BME280;32678;43.852;25.952;2023-06-22T18:08:20;101277.41;;;31.16;38.58
46944;BME280;32678;43.852;25.952;2023-06-22T18:13:21;101279.56;;;31.36;38.11
46944;BME280;32678;43.852;25.952;2023-06-22T18:18:18;101290.41;;;31.36;38.15
46944;BME280;32678;43.852;25.952;2023-06-22T18:23:16;101292.72;;;31.48;40.04
46944;BME280;32678;43.852;25.952;2023-06-22T18:28:14;101300.09;;;31.07;38.57
46944;BME280;32678;43.852;25.952;2023-06-22T18:33:12;101296.53;;;31.06;37.98
46944;BME280;32678;43.852;25.952;2023-06-22T18:38:11;101299.53;;;30.95;38.33
46944;BME280;32678;43.852;25.952;2023-06-22T18:43:08;101301.59;;;31.09;37.83
46944;BME280;32678;43.852;25.952;2023-06-22T18:48:05;101300.25;;;31.21;37.33
46944;BME280;32678;43.852;25.952;2023-06-22T18:53:02;101297.88;;;31.18;37.64
46944;BME280;32678;43.852;25.952;2023-06-22T18:58:12;101296.19;;;31.17;37.29
46944;BME280;32678;43.852;25.952;2023-06-22T19:03:15;101296.84;;;31.19;37.71
46944;BME280;32678;43.852;25.952;2023-06-22T19:08:18;101294.16;;;31.19;38.85
46944;BME280;32678;43.852;25.952;2023-06-22T19:13:25;101302.31;;;31.03;41.08
46944;BME280;32678;43.852;25.952;2023-06-22T19:18:23;101319.06;;;31.07;42.50
46944;BME280;32678;43.852;25.952;2023-06-22T19:23:23;101314.28;;;30.76;43.24
46944;BME280;32678;43.852;25.952;2023-06-22T19:28:24;101317.91;;;30.35;43.77
46944;BME280;32678;43.852;25.952;2023-06-22T19:33:22;101318.97;;;30.08;45.07
46944;BME280;32678;43.852;25.952;2023-06-22T19:38:22;101315.94;;;30.11;45.03
46944;BME280;32678;43.852;25.952;2023-06-22T19:43:19;101311.81;;;29.91;45.41
46944;BME280;32678;43.852;25.952;2023-06-22T19:48:17;101321.53;;;29.76;45.97
46944;BME280;32678;43.852;25.952;2023-06-22T19:53:14;101314.72;;;29.97;46.04
46944;BME280;32678;43.852;25.952;2023-06-22T19:58:11;101314.06;;;30.03;45.86
46944;BME280;32678;43.852;25.952;2023-06-22T20:03:08;101316.00;;;30.19;46.95
46944;BME280;32678;43.852;25.952;2023-06-22T20:08:09;101320.34;;;30.12;46.28
46944;BME280;32678;43.852;25.952;2023-06-22T20:13:10;101317.84;;;29.85;46.59
46944;BME280;32678;43.852;25.952;2023-06-22T20:18:15;101322.78;;;29.63;46.14
46944;BME280;32678;43.852;25.952;2023-06-22T20:23:20;101317.38;;;29.63;45.62
46944;BME280;32678;43.852;25.952;2023-06-22T20:28:17;101307.16;;;29.75;45.13
46944;BME280;32678;43.852;25.952;2023-06-22T20:33:16;101308.25;;;29.56;45.68
46944;BME280;32678;43.852;25.952;2023-06-22T20:43:29;101295.38;;;29.84;44.80
46944;BME280;32678;43.852;25.952;2023-06-22T20:48:26;101311.88;;;30.07;43.72
46944;BME280;32678;43.852;25.952;2023-06-22T20:53:35;101311.44;;;30.20;48.06
46944;BME280;32678;43.852;25.952;2023-06-22T20:58:32;101313.81;;;30.31;47.87
46944;BME280;32678;43.852;25.952;2023-06-22T21:03:29;101316.13;;;30.18;48.36
46944;BME280;32678;43.852;25.952;2023-06-22T21:08:26;101313.09;;;30.21;48.90
46944;BME280;32678;43.852;25.952;2023-06-22T21:13:23;101324.59;;;30.15;49.33
46944;BME280;32678;43.852;25.952;2023-06-22T21:18:21;101313.22;;;30.03;49.26
46944;BME280;32678;43.852;25.952;2023-06-22T21:23:17;101308.03;;;29.84;49.52
46944;BME280;32678;43.852;25.952;2023-06-22T21:28:14;101304.75;;;29.20;51.01
46944;BME280;32678;43.852;25.952;2023-06-22T21:33:13;101296.88;;;29.27;51.04
46944;BME280;32678;43.852;25.952;2023-06-22T21:38:11;101297.22;;;28.89;52.44
46944;BME280;32678;43.852;25.952;2023-06-22T21:43:08;101296.84;;;28.83;51.12
46944;BME280;32678;43.852;25.952;2023-06-22T21:48:04;101278.16;;;28.37;51.59
46944;BME280;32678;43.852;25.952;2023-06-22T21:53:01;101262.16;;;28.53;51.35
46944;BME280;32678;43.852;25.952;2023-06-22T21:58:00;101276.91;;;28.76;50.45
46944;BME280;32678;43.852;25.952;2023-06-22T22:02:57;101275.34;;;28.92;50.61
46944;BME280;32678;43.852;25.952;2023-06-22T22:07:54;101281.22;;;29.31;52.43
46944;BME280;32678;43.852;25.952;2023-06-22T22:12:50;101284.34;;;29.44;52.51
46944;BME280;32678;43.852;25.952;2023-06-22T22:17:49;101273.75;;;29.50;52.26
46944;BME280;32678;43.852;25.952;2023-06-22T22:22:46;101266.69;;;29.57;51.69
46944;BME280;32678;43.852;25.952;2023-06-22T22:27:43;101254.56;;;29.61;51.84
46944;BME280;32678;43.852;25.952;2023-06-22T22:32:39;101273.88;;;29.41;52.44
46944;BME280;32678;43.852;25.952;2023-06-22T22:37:37;101276.94;;;29.02;54.61
46944;BME280;32678;43.852;25.952;2023-06-22T22:42:34;101284.50;;;28.63;55.07
46944;BME280;32678;43.852;25.952;2023-06-22T22:47:30;101280.56;;;28.93;54.17
46944;BME280;32678;43.852;25.952;2023-06-22T22:52:29;101272.53;;;29.01;53.81
46944;BME280;32678;43.852;25.952;2023-06-22T22:57:27;101273.59;;;29.08;53.93
46944;BME280;32678;43.852;25.952;2023-06-22T23:02:24;101273.16;;;29.39;52.87
46944;BME280;32678;43.852;25.952;2023-06-22T23:07:21;101264.22;;;29.38;52.20
46944;BME280;32678;43.852;25.952;2023-06-22T23:12:17;101251.78;;;29.53;51.19
46944;BME280;32678;43.852;25.952;2023-06-22T23:17:14;101254.50;;;29.53;50.63
46944;BME280;32678;43.852;25.952;2023-06-22T23:22:12;101255.81;;;29.41;51.56
46944;BME280;32678;43.852;25.952;2023-06-22T23:27:09;101257.69;;;29.49;52.04
46944;BME280;32678;43.852;25.952;2023-06-22T23:32:08;101250.34;;;29.67;52.59
46944;BME280;32678;43.852;25.952;2023-06-22T23:37:07;101246.22;;;29.47;53.14
46944;BME280;32678;43.852;25.952;2023-06-22T23:42:05;101252.78;;;29.52;52.46
46944;BME280;32678;43.852;25.952;2023-06-22T23:47:02;101244.63;;;29.36;51.97
46944;BME280;32678;43.852;25.952;2023-06-22T23:51:58;101224.59;;;29.21;51.26
46944;BME280;32678;43.852;25.952;2023-06-22T23:56:56;101236.44;;;29.28;51.48
